Time;durP1;ratioP1;P1;durP2;ratioP2;P2;SDS_P1;SDS_P2;PMS_P1;PMS_P2;Temp;Humidity;BMP_temperature;BMP_pressure;BME280_temperature;BME280_humidity;BME280_pressure;Samples;Min_cycle;Max_cycle;Signal;HPM_P1;HPM_P2
2022/09/27 00:02:22;;;;;;;18.30;4.90;;;;;;;;;;5082245;28;20274;-67
2022/09/27 00:04:48;;;;;;;12.93;4.70;;;;;;;;;;5085703;28;20626;-67
2022/09/27 00:07:13;;;;;;;13.50;5.50;;;;;;;;;;5080808;28;20270;-67
2022/09/27 00:09:38;;;;;;;14.50;5.72;;;;;;;;;;5085356;28;20527;-67
2022/09/27 00:12:04;;;;;;;13.48;5.25;;;;;;;;;;5088064;28;20081;-67
2022/09/27 00:14:29;;;;;;;11.68;4.47;;;;;;;;;;5087602;28;20016;-67
2022/09/27 00:16:54;;;;;;;15.80;4.38;;;;;;;;;;5084112;28;20074;-67
2022/09/27 00:19:21;;;;;;;13.10;3.83;;;;;;;;;;5081402;28;20228;-67
2022/09/27 00:21:47;;;;;;;13.27;3.80;;;;;;;;;;5081192;28;20052;-67
2022/09/27 00:24:13;;;;;;;13.00;3.70;;;;;;;;;;5080720;28;20066;-67
2022/09/27 00:26:38;;;;;;;12.90;3.47;;;;;;;;;;5084173;28;20020;-67
2022/09/27 00:29:04;;;;;;;15.50;3.65;;;;;;;;;;5083045;28;20028;-67
2022/09/27 00:31:29;;;;;;;14.20;3.55;;;;;;;;;;5086823;28;20023;-67
2022/09/27 00:33:55;;;;;;;12.20;3.80;;;;;;;;;;5080223;28;20024;-67
2022/09/27 00:36:21;;;;;;;12.10;4.05;;;;;;;;;;5088535;28;20304;-67
2022/09/27 00:38:47;;;;;;;15.02;4.90;;;;;;;;;;5084370;28;20487;-67
2022/09/27 00:41:15;;;;;;;13.68;3.67;;;;;;;;;;5088174;28;20056;-67
2022/09/27 00:43:48;;;;;;;11.85;4.25;;;;;;;;;;5070744;28;20016;-67
2022/09/27 00:46:17;;;;;;;17.30;3.58;;;;;;;;;;5061461;28;20032;-67
2022/09/27 00:48:42;;;;;;;10.40;3.28;;;;;;;;;;5095546;28;20035;-66
2022/09/27 00:51:08;;;;;;;8.30;3.10;;;;;;;;;;5086721;28;20399;-66
2022/09/27 00:53:36;;;;;;;8.40;3.22;;;;;;;;;;5075792;28;20032;-67
2022/09/27 00:56:08;;;;;;;12.93;4.10;;;;;;;;;;5085263;28;20035;-66
2022/09/27 00:58:35;;;;;;;18.45;3.15;;;;;;;;;;5083759;28;20437;-66
2022/09/27 01:01:01;;;;;;;13.07;3.53;;;;;;;;;;5085747;28;20020;-66
2022/09/27 01:03:35;;;;;;;10.20;3.25;;;;;;;;;;5087028;28;20031;-66
2022/09/27 01:06:01;;;;;;;14.98;3.60;;;;;;;;;;5083086;28;20036;-66
2022/09/27 01:08:26;;;;;;;17.45;4.35;;;;;;;;;;5088070;28;20388;-66
2022/09/27 01:10:57;;;;;;;10.47;3.70;;;;;;;;;;5085679;28;20012;-66
2022/09/27 01:13:27;;;;;;;14.98;4.13;;;;;;;;;;5091938;28;20267;-67
2022/09/27 01:15:58;;;;;;;12.23;5.07;;;;;;;;;;5082736;28;20035;-66
2022/09/27 01:18:37;;;;;;;17.90;4.82;;;;;;;;;;5090280;28;20549;-66
2022/09/27 01:21:20;;;;;;;15.95;5.68;;;;;;;;;;5080578;28;20122;-67
2022/09/27 01:24:04;;;;;;;18.70;4.75;;;;;;;;;;5085033;28;20498;-67
2022/09/27 01:26:44;;;;;;;9.90;4.85;;;;;;;;;;5086982;28;20031;-68
2022/09/27 01:29:18;;;;;;;15.82;5.43;;;;;;;;;;5090678;28;20103;-67
2022/09/27 01:31:51;;;;;;;15.40;6.15;;;;;;;;;;5088247;28;21723;-67
2022/09/27 01:34:26;;;;;;;12.90;4.47;;;;;;;;;;5097976;28;20020;-67
2022/09/27 01:37:17;;;;;;;10.95;4.68;;;;;;;;;;5091495;28;20024;-67
2022/09/27 01:40:00;;;;;;;10.68;4.00;;;;;;;;;;5083071;28;20016;-67
2022/09/27 01:42:28;;;;;;;19.20;4.18;;;;;;;;;;5085373;28;20034;-67
2022/09/27 01:44:58;;;;;;;8.48;4.03;;;;;;;;;;5088485;28;20032;-67
2022/09/27 01:47:27;;;;;;;14.13;3.70;;;;;;;;;;5086761;28;20425;-67
2022/09/27 01:49:55;;;;;;;10.43;3.40;;;;;;;;;;5093024;28;20484;-67
2022/09/27 01:52:23;;;;;;;11.32;3.08;;;;;;;;;;5085485;28;20032;-66
2022/09/27 01:54:51;;;;;;;12.52;3.20;;;;;;;;;;5087935;28;20016;-66
2022/09/27 01:57:20;;;;;;;15.88;3.67;;;;;;;;;;5084768;28;20016;-67
2022/09/27 01:59:49;;;;;;;16.73;3.58;;;;;;;;;;5083647;28;20020;-66
2022/09/27 02:02:15;;;;;;;16.00;3.45;;;;;;;;;;5092214;28;20472;-66
2022/09/27 02:04:41;;;;;;;12.73;3.58;;;;;;;;;;5090217;28;20093;-66
2022/09/27 02:07:26;;;;;;;11.05;3.22;;;;;;;;;;5089603;28;20059;-66
2022/09/27 02:09:53;;;;;;;14.55;4.25;;;;;;;;;;5082250;28;20048;-66
2022/09/27 02:12:21;;;;;;;16.27;4.40;;;;;;;;;;5087999;28;20113;-66
2022/09/27 02:14:49;;;;;;;15.95;3.58;;;;;;;;;;5093748;28;20024;-66
2022/09/27 02:17:14;;;;;;;13.80;4.03;;;;;;;;;;5102135;28;20664;-66
2022/09/27 02:19:54;;;;;;;23.27;4.47;;;;;;;;;;5090142;28;20012;-66
2022/09/27 02:22:20;;;;;;;20.05;4.70;;;;;;;;;;5088275;28;20361;-66
2022/09/27 02:24:52;;;;;;;18.83;6.10;;;;;;;;;;5083872;28;20056;-66
2022/09/27 02:27:21;;;;;;;16.02;5.57;;;;;;;;;;5087820;28;20273;-66
2022/09/27 02:29:50;;;;;;;11.20;5.95;;;;;;;;;;5090288;28;20084;-66
2022/09/27 02:32:15;;;;;;;13.35;6.20;;;;;;;;;;5089670;28;20031;-66
2022/09/27 02:34:42;;;;;;;14.00;6.47;;;;;;;;;;5069944;28;20016;-66
2022/09/27 02:37:07;;;;;;;17.08;6.75;;;;;;;;;;5088282;28;20027;-66
2022/09/27 02:39:33;;;;;;;13.63;5.82;;;;;;;;;;5094907;28;20098;-66
2022/09/27 02:41:58;;;;;;;21.00;8.13;;;;;;;;;;5084219;28;20028;-66
2022/09/27 02:44:25;;;;;;;24.77;8.18;;;;;;;;;;5089907;28;20052;-66
2022/09/27 02:47:01;;;;;;;19.63;6.60;;;;;;;;;;5087999;28;20114;-67
2022/09/27 02:49:43;;;;;;;15.23;5.80;;;;;;;;;;5081126;28;20077;-67
2022/09/27 02:52:13;;;;;;;16.58;4.90;;;;;;;;;;5084792;28;20016;-67
2022/09/27 02:54:43;;;;;;;18.45;5.43;;;;;;;;;;5093678;28;20145;-67
2022/09/27 02:57:27;;;;;;;17.95;5.70;;;;;;;;;;5087631;28;20024;-67
2022/09/27 03:00:05;;;;;;;14.35;5.70;;;;;;;;;;5084352;28;20392;-67
2022/09/27 03:02:38;;;;;;;17.00;4.95;;;;;;;;;;5081527;28;20059;-67
2022/09/27 03:05:12;;;;;;;16.05;4.35;;;;;;;;;;5084953;28;20031;-67
2022/09/27 03:07:37;;;;;;;12.48;4.43;;;;;;;;;;5080627;28;20051;-66
2022/09/27 03:10:03;;;;;;;13.23;5.25;;;;;;;;;;5080808;28;20056;-66
2022/09/27 03:12:28;;;;;;;12.00;4.43;;;;;;;;;;5090665;28;20056;-67
2022/09/27 03:14:57;;;;;;;19.02;4.93;;;;;;;;;;5087762;28;20035;-67
2022/09/27 03:17:23;;;;;;;16.50;5.40;;;;;;;;;;5087057;28;20083;-67
2022/09/27 03:19:48;;;;;;;12.65;4.55;;;;;;;;;;5081260;28;20112;-66
2022/09/27 03:22:13;;;;;;;14.52;4.70;;;;;;;;;;5082368;28;20053;-66
2022/09/27 03:24:39;;;;;;;11.38;4.18;;;;;;;;;;5080770;28;20408;-66
2022/09/27 03:27:04;;;;;;;16.15;4.07;;;;;;;;;;5088221;28;20016;-66
2022/09/27 03:29:31;;;;;;;6.85;4.15;;;;;;;;;;5087509;28;20036;-66
2022/09/27 03:31:56;;;;;;;10.45;4.45;;;;;;;;;;5069129;28;20147;-66
2022/09/27 03:34:21;;;;;;;23.20;6.35;;;;;;;;;;5091038;28;20698;-66
2022/09/27 03:36:46;;;;;;;10.27;5.05;;;;;;;;;;5082766;28;20026;-66
2022/09/27 03:39:11;;;;;;;13.80;4.60;;;;;;;;;;5085721;28;20107;-66
2022/09/27 03:41:37;;;;;;;13.30;4.60;;;;;;;;;;5084333;28;20335;-66
2022/09/27 03:44:02;;;;;;;8.30;3.75;;;;;;;;;;5090451;28;20092;-66
2022/09/27 03:46:27;;;;;;;10.73;2.95;;;;;;;;;;5084306;28;20380;-66
2022/09/27 03:48:53;;;;;;;11.02;3.47;;;;;;;;;;5088877;28;20477;-66
2022/09/27 03:51:18;;;;;;;6.28;2.58;;;;;;;;;;5082266;28;20020;-66
2022/09/27 03:53:43;;;;;;;7.60;2.23;;;;;;;;;;5089968;28;20024;-66
2022/09/27 03:56:08;;;;;;;7.50;2.08;;;;;;;;;;5088344;28;20285;-66
2022/09/27 03:58:34;;;;;;;3.83;1.85;;;;;;;;;;5085552;28;20098;-66
2022/09/27 04:00:59;;;;;;;6.70;1.85;;;;;;;;;;5086783;28;20698;-66
2022/09/27 04:03:25;;;;;;;6.00;2.30;;;;;;;;;;5087364;28;20028;-66
2022/09/27 04:05:51;;;;;;;7.88;2.55;;;;;;;;;;5087751;28;20036;-66
2022/09/27 04:08:16;;;;;;;9.05;2.40;;;;;;;;;;5074478;28;20080;-66
2022/09/27 04:10:41;;;;;;;6.90;2.53;;;;;;;;;;5078182;28;20032;-66
2022/09/27 04:13:07;;;;;;;6.22;2.47;;;;;;;;;;5085516;28;20261;-66
2022/09/27 04:15:32;;;;;;;8.57;3.23;;;;;;;;;;5078632;28;20688;-66
2022/09/27 04:17:57;;;;;;;14.25;3.95;;;;;;;;;;5087984;28;20285;-66
2022/09/27 04:20:22;;;;;;;7.37;3.33;;;;;;;;;;5088628;28;20020;-66
2022/09/27 04:22:47;;;;;;;7.33;3.33;;;;;;;;;;5084091;28;20338;-66
2022/09/27 04:25:12;;;;;;;11.30;3.50;;;;;;;;;;5085008;28;20274;-66
2022/09/27 04:27:39;;;;;;;15.95;3.25;;;;;;;;;;5078735;28;20300;-66
2022/09/27 04:30:05;;;;;;;7.22;3.33;;;;;;;;;;5079633;28;20025;-66
2022/09/27 04:32:30;;;;;;;6.30;3.22;;;;;;;;;;5085372;28;20041;-65
2022/09/27 04:37:40;;;;;;;14.32;3.75;;;;;;;;;;5075007;28;20117;-66
2022/09/27 04:40:06;;;;;;;8.75;2.10;;;;;;;;;;5085168;28;20442;-66
2022/09/27 04:42:33;;;;;;;6.10;2.03;;;;;;;;;;5080489;28;20024;-66
2022/09/27 04:44:58;;;;;;;5.82;1.80;;;;;;;;;;5086699;28;20074;-67
2022/09/27 04:47:23;;;;;;;11.30;2.23;;;;;;;;;;5089495;28;20019;-67
2022/09/27 04:49:48;;;;;;;8.37;2.27;;;;;;;;;;5089441;28;20337;-65
2022/09/27 04:52:14;;;;;;;12.80;2.53;;;;;;;;;;5088329;28;20262;-67
2022/09/27 04:54:39;;;;;;;8.60;1.90;;;;;;;;;;5090790;28;20274;-67
2022/09/27 04:57:04;;;;;;;11.82;1.80;;;;;;;;;;5090542;28;20044;-66
2022/09/27 04:59:30;;;;;;;8.00;3.10;;;;;;;;;;5089425;28;20027;-66
2022/09/27 05:01:58;;;;;;;8.80;2.63;;;;;;;;;;5082967;28;20036;-64
2022/09/27 05:04:23;;;;;;;11.23;2.33;;;;;;;;;;5084678;28;20070;-66
2022/09/27 05:06:48;;;;;;;11.30;3.77;;;;;;;;;;5087694;28;20055;-67
2022/09/27 05:09:14;;;;;;;10.57;2.72;;;;;;;;;;5089280;28;20593;-65
2022/09/27 05:11:39;;;;;;;3.90;1.95;;;;;;;;;;5090045;28;20012;-66
2022/09/27 05:14:04;;;;;;;7.05;2.83;;;;;;;;;;5089310;28;20047;-66
2022/09/27 05:16:29;;;;;;;8.73;2.35;;;;;;;;;;5085190;28;20028;-66
2022/09/27 05:18:55;;;;;;;7.13;2.67;;;;;;;;;;5085236;28;20048;-67
2022/09/27 05:21:21;;;;;;;9.68;3.03;;;;;;;;;;5084210;28;20012;-67
2022/09/27 05:23:46;;;;;;;4.68;2.22;;;;;;;;;;5085026;28;20051;-66
2022/09/27 05:26:11;;;;;;;4.25;2.20;;;;;;;;;;5090254;28;20518;-66
2022/09/27 05:28:36;;;;;;;6.70;1.75;;;;;;;;;;5086438;28;20065;-66
2022/09/27 05:31:01;;;;;;;7.25;2.15;;;;;;;;;;5089950;28;20366;-66
2022/09/27 05:33:27;;;;;;;8.90;1.80;;;;;;;;;;5091581;28;20012;-65
2022/09/27 05:35:56;;;;;;;10.57;2.63;;;;;;;;;;5083684;28;20122;-65
2022/09/27 05:38:21;;;;;;;7.10;2.28;;;;;;;;;;5091215;28;20266;-67
2022/09/27 05:40:49;;;;;;;10.07;2.25;;;;;;;;;;5089163;28;20027;-66
2022/09/27 05:43:14;;;;;;;5.63;2.00;;;;;;;;;;5089799;28;20628;-66
2022/09/27 05:45:40;;;;;;;15.45;2.75;;;;;;;;;;5090226;28;20039;-66
2022/09/27 05:48:05;;;;;;;8.27;1.60;;;;;;;;;;5084833;28;20126;-66
2022/09/27 05:50:31;;;;;;;10.35;1.90;;;;;;;;;;5088034;28;20285;-66
2022/09/27 05:52:56;;;;;;;6.40;1.70;;;;;;;;;;5084168;28;20023;-66
2022/09/27 05:55:22;;;;;;;5.90;1.70;;;;;;;;;;5093243;28;20023;-67
2022/09/27 05:57:54;;;;;;;6.97;1.98;;;;;;;;;;5086294;28;20016;-66
2022/09/27 06:00:19;;;;;;;9.57;2.60;;;;;;;;;;5086771;28;20026;-66
2022/09/27 06:02:51;;;;;;;7.60;1.27;;;;;;;;;;5079520;28;20434;-66
2022/09/27 06:05:16;;;;;;;10.18;1.80;;;;;;;;;;5088500;28;20282;-66
2022/09/27 06:07:41;;;;;;;5.83;1.90;;;;;;;;;;5079967;28;20020;-66
2022/09/27 06:10:07;;;;;;;9.67;2.23;;;;;;;;;;5077856;28;20376;-66
2022/09/27 06:12:33;;;;;;;8.85;1.65;;;;;;;;;;5082016;28;20270;-66
2022/09/27 06:14:58;;;;;;;10.95;1.58;;;;;;;;;;5087333;28;20586;-66
2022/09/27 06:17:23;;;;;;;8.80;1.65;;;;;;;;;;5068030;28;20024;-66
2022/09/27 06:19:48;;;;;;;11.30;3.10;;;;;;;;;;5086588;28;20278;-69
2022/09/27 06:22:14;;;;;;;10.75;1.88;;;;;;;;;;5082799;28;20269;-66
2022/09/27 06:24:39;;;;;;;7.68;2.55;;;;;;;;;;5084734;28;20456;-66
2022/09/27 06:27:04;;;;;;;28.77;7.57;;;;;;;;;;5086837;28;20051;-66
2022/09/27 06:29:31;;;;;;;8.50;2.80;;;;;;;;;;5082002;28;20331;-66
2022/09/27 06:31:57;;;;;;;10.35;3.30;;;;;;;;;;5090915;28;20278;-66
2022/09/27 06:34:23;;;;;;;10.50;3.22;;;;;;;;;;5085476;28;20016;-66
2022/09/27 06:36:48;;;;;;;16.30;3.50;;;;;;;;;;5086214;28;20035;-67
2022/09/27 06:39:14;;;;;;;14.52;4.63;;;;;;;;;;5087360;28;20274;-66
2022/09/27 06:41:40;;;;;;;10.73;3.50;;;;;;;;;;5086043;28;20077;-66
2022/09/27 06:44:05;;;;;;;7.13;3.42;;;;;;;;;;5077845;28;20020;-66
2022/09/27 06:46:30;;;;;;;14.57;6.27;;;;;;;;;;5082872;28;20423;-66
2022/09/27 06:48:55;;;;;;;9.43;3.87;;;;;;;;;;5083723;28;20294;-66
2022/09/27 06:51:21;;;;;;;12.55;4.20;;;;;;;;;;5075085;28;20361;-66
2022/09/27 06:53:46;;;;;;;12.60;4.93;;;;;;;;;;5073352;28;20032;-66
2022/09/27 06:56:12;;;;;;;14.63;4.27;;;;;;;;;;5090518;28;20682;-67
2022/09/27 07:01:25;;;;;;;10.65;4.97;;;;;;;;;;5094956;28;20535;-65
2022/09/27 07:03:50;;;;;;;10.20;4.18;;;;;;;;;;5090336;28;20028;-67
2022/09/27 07:06:21;;;;;;;14.20;4.27;;;;;;;;;;5089140;28;20483;-67
2022/09/27 07:08:47;;;;;;;;;;;;;;;;;;5081060;28;20321;-64
2022/09/27 07:11:13;;;;;;;12.48;4.68;;;;;;;;;;5077264;28;19963;-66
2022/09/27 07:13:41;;;;;;;9.38;3.53;;;;;;;;;;5081345;28;20486;-65
2022/09/27 07:16:06;;;;;;;15.77;3.97;;;;;;;;;;5081052;28;20434;-67
2022/09/27 07:18:32;;;;;;;5.80;1.93;;;;;;;;;;5083497;28;20024;-65
2022/09/27 07:20:58;;;;;;;7.97;1.75;;;;;;;;;;5079671;28;20281;-67
2022/09/27 07:23:24;;;;;;;7.60;2.80;;;;;;;;;;5069033;28;20055;-66
2022/09/27 07:25:49;;;;;;;7.00;1.35;;;;;;;;;;5095004;28;20336;-65
2022/09/27 07:28:16;;;;;;;8.18;1.70;;;;;;;;;;5088838;28;20016;-66
2022/09/27 07:30:42;;;;;;;8.82;2.17;;;;;;;;;;5084102;28;20526;-66
2022/09/27 07:33:08;;;;;;;6.43;1.77;;;;;;;;;;5084185;28;20111;-66
2022/09/27 07:35:35;;;;;;;9.90;1.38;;;;;;;;;;5068346;28;20043;-67
2022/09/27 07:38:02;;;;;;;5.40;2.20;;;;;;;;;;5079868;28;20027;-66
2022/09/27 07:40:27;;;;;;;6.93;1.60;;;;;;;;;;5075095;28;20685;-69
2022/09/27 07:42:56;;;;;;;7.57;1.25;;;;;;;;;;5079885;28;20043;-66
2022/09/27 07:45:22;;;;;;;4.15;1.10;;;;;;;;;;5064859;28;20149;-67
2022/09/27 07:47:47;;;;;;;10.18;1.73;;;;;;;;;;5085056;28;20110;-67
2022/09/27 07:50:13;;;;;;;12.75;2.40;;;;;;;;;;5087343;28;20024;-66
2022/09/27 07:52:42;;;;;;;6.10;2.40;;;;;;;;;;5081984;28;20024;-67
2022/09/27 07:55:08;;;;;;;7.65;2.03;;;;;;;;;;5083537;28;20039;-66
2022/09/27 07:57:33;;;;;;;6.65;2.45;;;;;;;;;;5086932;28;20476;-66
2022/09/27 07:59:58;;;;;;;6.50;2.47;;;;;;;;;;5084755;28;20074;-66
2022/09/27 08:02:24;;;;;;;12.70;2.80;;;;;;;;;;5085084;28;20266;-66
2022/09/27 08:04:49;;;;;;;4.05;2.47;;;;;;;;;;5088829;28;20781;-66
2022/09/27 08:07:14;;;;;;;3.00;1.77;;;;;;;;;;5084646;28;20445;-65
2022/09/27 08:09:40;;;;;;;6.05;1.38;;;;;;;;;;5080222;28;20059;-67
2022/09/27 08:12:05;;;;;;;5.10;1.92;;;;;;;;;;5087163;28;20456;-66
2022/09/27 08:14:30;;;;;;;3.10;1.40;;;;;;;;;;5083504;28;20472;-65
2022/09/27 08:16:56;;;;;;;8.83;1.97;;;;;;;;;;5080771;28;20069;-66
2022/09/27 08:19:21;;;;;;;6.38;2.50;;;;;;;;;;5087497;28;20691;-67
2022/09/27 08:21:46;;;;;;;5.95;2.97;;;;;;;;;;5091204;28;20050;-67
2022/09/27 08:24:12;;;;;;;10.50;2.70;;;;;;;;;;5100522;28;20026;-67
2022/09/27 08:26:37;;;;;;;5.55;2.70;;;;;;;;;;5114590;28;20019;-67
2022/09/27 08:29:02;;;;;;;8.02;2.58;;;;;;;;;;5104792;28;20020;-67
2022/09/27 08:31:27;;;;;;;11.68;2.40;;;;;;;;;;5096413;28;20038;-67
2022/09/27 08:33:53;;;;;;;10.37;3.07;;;;;;;;;;5090871;28;20096;-68
2022/09/27 08:36:19;;;;;;;8.20;2.85;;;;;;;;;;5095550;28;20273;-67
2022/09/27 08:38:47;;;;;;;7.03;2.92;;;;;;;;;;5093090;28;20039;-66
2022/09/27 08:41:33;;;;;;;10.30;2.78;;;;;;;;;;5091464;28;20384;-67
2022/09/27 08:44:04;;;;;;;6.78;3.20;;;;;;;;;;5054914;28;20500;-66
2022/09/27 08:46:41;;;;;;;10.15;4.07;;;;;;;;;;5085178;28;20024;-68
2022/09/27 08:49:13;;;;;;;6.13;2.50;;;;;;;;;;5088571;28;20032;-70
2022/09/27 08:51:40;;;;;;;3.63;1.95;;;;;;;;;;5098475;28;20016;-67
2022/09/27 08:54:25;;;;;;;5.53;2.60;;;;;;;;;;5099835;28;20020;-66
2022/09/27 08:57:02;;;;;;;13.98;2.10;;;;;;;;;;5092123;28;20028;-67
2022/09/27 08:59:29;;;;;;;4.43;1.83;;;;;;;;;;5089662;28;20073;-66
2022/09/27 09:01:54;;;;;;;12.43;2.08;;;;;;;;;;5084321;28;20492;-67
2022/09/27 09:04:26;;;;;;;5.65;1.50;;;;;;;;;;5087671;28;20031;-67
2022/09/27 09:07:00;;;;;;;3.67;1.42;;;;;;;;;;5096377;28;20016;-67
2022/09/27 09:09:28;;;;;;;4.28;1.67;;;;;;;;;;5087406;28;20031;-68
2022/09/27 09:15:12;;;;;;;3.35;1.00;;;;;;;;;;5064487;28;20617;-65
2022/09/27 09:17:52;;;;;;;6.57;1.70;;;;;;;;;;5065638;28;20068;-66
2022/09/27 09:20:22;;;;;;;2.38;1.60;;;;;;;;;;5090146;28;20051;-67
2022/09/27 09:22:56;;;;;;;4.45;2.22;;;;;;;;;;5091590;28;20016;-67
2022/09/27 09:25:27;;;;;;;3.17;1.60;;;;;;;;;;5088832;28;20032;-67
2022/09/27 09:28:08;;;;;;;5.88;2.40;;;;;;;;;;5086676;28;20057;-67
2022/09/27 09:30:52;;;;;;;5.03;1.95;;;;;;;;;;5083350;28;20136;-67
2022/09/27 09:33:25;;;;;;;8.32;2.10;;;;;;;;;;5085088;28;20028;-68
2022/09/27 09:36:00;;;;;;;4.47;1.33;;;;;;;;;;5083771;28;20092;-67
2022/09/27 09:38:37;;;;;;;5.80;1.60;;;;;;;;;;5088893;28;21700;-67
2022/09/27 09:41:06;;;;;;;5.72;1.45;;;;;;;;;;5087930;28;20020;-67
2022/09/27 09:43:41;;;;;;;3.17;1.48;;;;;;;;;;5088632;28;20365;-67
2022/09/27 09:46:12;;;;;;;2.70;1.70;;;;;;;;;;5088473;28;20076;-67
2022/09/27 09:48:50;;;;;;;3.97;1.33;;;;;;;;;;5079814;28;20420;-67
2022/09/27 09:51:19;;;;;;;4.93;1.42;;;;;;;;;;5060097;28;20024;-67
2022/09/27 09:53:48;;;;;;;11.80;1.65;;;;;;;;;;5088617;28;20061;-67
2022/09/27 09:56:28;;;;;;;5.25;2.45;;;;;;;;;;5086525;28;20039;-67
2022/09/27 09:58:58;;;;;;;4.53;2.22;;;;;;;;;;5085287;28;20051;-67
2022/09/27 10:01:29;;;;;;;4.38;1.70;;;;;;;;;;5079539;28;20024;-68
2022/09/27 10:03:55;;;;;;;7.95;1.83;;;;;;;;;;5083899;28;20036;-66
2022/09/27 10:06:21;;;;;;;6.82;2.28;;;;;;;;;;5087870;28;20019;-66
2022/09/27 10:08:46;;;;;;;5.15;1.70;;;;;;;;;;5080930;28;20044;-66
2022/09/27 10:11:20;;;;;;;4.47;2.03;;;;;;;;;;5080841;28;20016;-67
2022/09/27 10:13:46;;;;;;;5.57;2.03;;;;;;;;;;5085145;28;20381;-66
2022/09/27 10:16:12;;;;;;;8.73;2.20;;;;;;;;;;5082214;28;20534;-67
2022/09/27 10:18:40;;;;;;;8.23;1.80;;;;;;;;;;5088795;28;20016;-67
2022/09/27 10:21:06;;;;;;;4.70;2.15;;;;;;;;;;5087276;28;20023;-67
2022/09/27 10:23:32;;;;;;;8.82;1.80;;;;;;;;;;5083852;28;20073;-66
2022/09/27 10:26:01;;;;;;;10.65;2.35;;;;;;;;;;5085370;28;20045;-68
2022/09/27 10:28:31;;;;;;;10.57;2.08;;;;;;;;;;5079392;28;20016;-66
2022/09/27 10:30:57;;;;;;;2.75;1.58;;;;;;;;;;5087371;22;20123;-65
2022/09/27 10:33:22;;;;;;;5.50;2.05;;;;;;;;;;5041454;28;20456;-66
2022/09/27 10:35:49;;;;;;;11.85;2.08;;;;;;;;;;5050750;28;20404;-66
2022/09/27 10:38:17;;;;;;;6.97;1.92;;;;;;;;;;5048948;28;20025;-66
2022/09/27 10:40:43;;;;;;;5.35;2.17;;;;;;;;;;5047140;28;20045;-66
2022/09/27 10:43:24;;;;;;;5.38;2.42;;;;;;;;;;5046136;28;20021;-66
2022/09/27 10:45:50;;;;;;;7.03;2.10;;;;;;;;;;5043824;28;20074;-67
2022/09/27 10:48:22;;;;;;;6.72;2.33;;;;;;;;;;5047848;28;20033;-66
2022/09/27 10:50:58;;;;;;;6.55;1.88;;;;;;;;;;5049421;28;20029;-66
2022/09/27 10:53:23;;;;;;;6.20;1.50;;;;;;;;;;5046356;28;20108;-66
2022/09/27 10:55:49;;;;;;;3.95;1.80;;;;;;;;;;5047373;28;20116;-66
2022/09/27 10:58:23;;;;;;;2.78;1.30;;;;;;;;;;5047913;28;20028;-67
2022/09/27 11:01:07;;;;;;;5.28;2.25;;;;;;;;;;5048100;28;20132;-67
2022/09/27 11:03:36;;;;;;;7.97;3.00;;;;;;;;;;5045631;28;20532;-67
2022/09/27 11:06:20;;;;;;;7.93;3.17;;;;;;;;;;5048796;28;20029;-67
2022/09/27 11:08:47;;;;;;;9.15;2.13;;;;;;;;;;5047158;28;20029;-67
2022/09/27 11:11:12;;;;;;;6.45;2.47;;;;;;;;;;5049008;28;20017;-67
2022/09/27 11:13:38;;;;;;;6.03;2.43;;;;;;;;;;5049409;28;20031;-67
2022/09/27 11:16:17;;;;;;;8.23;3.40;;;;;;;;;;5047136;28;20325;-67
2022/09/27 11:18:45;;;;;;;7.18;3.30;;;;;;;;;;5045518;28;20088;-67
2022/09/27 11:21:10;;;;;;;6.60;3.08;;;;;;;;;;5048807;28;20373;-67
2022/09/27 11:23:36;;;;;;;6.50;3.60;;;;;;;;;;5052480;28;20112;-67
2022/09/27 11:26:13;;;;;;;9.35;3.92;;;;;;;;;;5049539;28;20021;-66
2022/09/27 11:28:57;;;;;;;8.27;3.90;;;;;;;;;;5051225;28;20009;-70
2022/09/27 11:31:28;;;;;;;12.18;5.07;;;;;;;;;;5043034;28;20028;-71
2022/09/27 11:33:59;;;;;;;10.38;4.65;;;;;;;;;;5048116;28;20047;-66
2022/09/27 11:36:54;;;;;;;9.23;4.80;;;;;;;;;;5047282;28;20485;-70
2022/09/27 11:39:22;;;;;;;7.45;4.93;;;;;;;;;;4963793;28;20034;-67
2022/09/27 11:42:04;;;;;;;11.85;7.05;;;;;;;;;;5053168;28;20048;-68
2022/09/27 11:44:30;;;;;;;21.67;8.45;;;;;;;;;;5046815;28;20021;-69
2022/09/27 11:47:14;;;;;;;16.00;10.77;;;;;;;;;;5046335;28;20520;-70
2022/09/27 11:49:58;;;;;;;17.38;10.57;;;;;;;;;;5048336;28;20016;-69
2022/09/27 11:52:23;;;;;;;21.70;11.00;;;;;;;;;;5049525;28;20025;-67
2022/09/27 11:54:55;;;;;;;27.27;13.43;;;;;;;;;;5049682;28;20358;-69
2022/09/27 11:57:25;;;;;;;18.15;8.35;;;;;;;;;;5047396;28;20564;-66
2022/09/27 12:00:20;;;;;;;16.45;7.95;;;;;;;;;;5024382;28;20021;-66
2022/09/27 12:02:54;;;;;;;15.50;7.25;;;;;;;;;;5034140;28;20025;-67
2022/09/27 12:05:30;;;;;;;9.90;5.15;;;;;;;;;;5047847;28;20366;-69
2022/09/27 12:08:14;;;;;;;11.55;4.72;;;;;;;;;;5050375;28;20024;-69
2022/09/27 12:10:41;;;;;;;10.95;5.85;;;;;;;;;;5026742;28;20032;-66
2022/09/27 12:13:09;;;;;;;13.35;4.70;;;;;;;;;;5045845;28;20112;-68
2022/09/27 12:15:38;;;;;;;8.70;5.28;;;;;;;;;;5045875;28;20035;-66
2022/09/27 12:18:12;;;;;;;8.05;4.45;;;;;;;;;;5046608;28;20025;-69
2022/09/27 12:20:39;;;;;;;10.32;6.35;;;;;;;;;;5045049;28;20075;-66
2022/09/27 12:23:04;;;;;;;10.73;4.82;;;;;;;;;;5046899;28;20028;-68
2022/09/27 12:25:33;;;;;;;15.10;4.83;;;;;;;;;;5048114;28;20017;-66
2022/09/27 12:28:01;;;;;;;10.80;5.70;;;;;;;;;;5047446;28;20307;-69
2022/09/27 12:30:28;;;;;;;9.80;5.22;;;;;;;;;;5048587;28;20029;-70
2022/09/27 12:32:56;;;;;;;13.30;5.72;;;;;;;;;;5047659;28;20020;-67
2022/09/27 12:35:23;;;;;;;18.27;5.03;;;;;;;;;;5046779;28;20096;-67
2022/09/27 12:37:52;;;;;;;9.43;3.80;;;;;;;;;;5048753;28;20021;-71
2022/09/27 12:40:20;;;;;;;12.65;5.90;;;;;;;;;;5047299;28;20485;-67
2022/09/27 12:43:05;;;;;;;10.88;4.70;;;;;;;;;;5049105;28;20053;-69
2022/09/27 12:45:43;;;;;;;7.97;4.55;;;;;;;;;;5046907;28;20037;-66
2022/09/27 12:48:35;;;;;;;7.03;3.30;;;;;;;;;;5047861;28;20100;-66
2022/09/27 12:51:06;;;;;;;4.78;2.38;;;;;;;;;;5047562;28;20473;-66
2022/09/27 12:53:52;;;;;;;9.70;2.20;;;;;;;;;;5048251;28;20067;-67
2022/09/27 12:56:21;;;;;;;4.10;1.52;;;;;;;;;;5048223;28;20021;-67
2022/09/27 12:58:52;;;;;;;11.93;1.90;;;;;;;;;;5047139;28;20499;-69
2022/09/27 13:01:36;;;;;;;7.95;1.85;;;;;;;;;;5046474;28;20024;-68
2022/09/27 13:04:20;;;;;;;8.77;2.10;;;;;;;;;;5049762;28;20096;-66
2022/09/27 13:07:02;;;;;;;3.00;1.40;;;;;;;;;;5049692;28;20025;-64
2022/09/27 13:09:35;;;;;;;8.82;1.77;;;;;;;;;;5052047;28;20358;-65
2022/09/27 13:12:04;;;;;;;13.52;2.20;;;;;;;;;;5048886;28;20017;-68
2022/09/27 13:14:32;;;;;;;4.50;1.60;;;;;;;;;;5046355;28;20098;-68
2022/09/27 13:16:57;;;;;;;6.07;1.90;;;;;;;;;;5049445;28;20036;-70
2022/09/27 13:19:34;;;;;;;5.78;2.30;;;;;;;;;;5049145;28;20017;-69
2022/09/27 13:22:00;;;;;;;4.53;2.20;;;;;;;;;;5051180;28;20032;-67
2022/09/27 13:24:41;;;;;;;7.15;1.88;;;;;;;;;;5050792;28;20020;-70
2022/09/27 13:27:22;;;;;;;11.65;1.73;;;;;;;;;;5049192;28;20025;-69
2022/09/27 13:29:51;;;;;;;3.90;1.95;;;;;;;;;;5052583;28;20037;-69
2022/09/27 13:32:17;;;;;;;5.40;2.53;;;;;;;;;;5047918;28;20013;-69
2022/09/27 13:34:47;;;;;;;10.82;2.80;;;;;;;;;;5052741;28;20058;-66
2022/09/27 13:37:27;;;;;;;6.38;2.78;;;;;;;;;;5050034;28;20070;-67
2022/09/27 13:40:11;;;;;;;7.10;2.53;;;;;;;;;;5046635;28;20029;-68
2022/09/27 13:42:39;;;;;;;7.72;2.88;;;;;;;;;;5048459;28;20013;-69
2022/09/27 13:45:28;;;;;;;14.40;4.65;;;;;;;;;;5050907;28;20033;-69
2022/09/27 13:47:55;;;;;;;5.38;2.63;;;;;;;;;;5049865;28;20473;-69
2022/09/27 13:50:20;;;;;;;7.55;3.78;;;;;;;;;;5042048;28;20074;-68
2022/09/27 13:53:06;;;;;;;8.02;3.47;;;;;;;;;;5050613;28;20029;-68
2022/09/27 13:55:42;;;;;;;7.30;2.67;;;;;;;;;;5041331;28;20032;-69
2022/09/27 13:58:26;;;;;;;7.38;2.80;;;;;;;;;;5048093;28;20024;-69
2022/09/27 14:00:53;;;;;;;6.00;2.72;;;;;;;;;;5044768;28;20099;-66
2022/09/27 14:03:21;;;;;;;6.32;2.33;;;;;;;;;;5050517;28;20035;-67
2022/09/27 14:05:49;;;;;;;9.07;3.10;;;;;;;;;;5050318;28;20028;-67
2022/09/27 14:08:35;;;;;;;5.28;2.10;;;;;;;;;;5048260;28;20029;-65
2022/09/27 14:11:01;;;;;;;4.78;1.63;;;;;;;;;;5048571;28;20048;-66
2022/09/27 14:13:26;;;;;;;5.60;1.35;;;;;;;;;;5047518;28;20004;-68
2022/09/27 14:15:53;;;;;;;5.80;1.75;;;;;;;;;;5045925;28;20630;-69
2022/09/27 14:18:18;;;;;;;3.80;1.40;;;;;;;;;;5049067;28;20107;-69
2022/09/27 14:20:45;;;;;;;5.30;1.50;;;;;;;;;;5047237;28;20104;-68
2022/09/27 14:23:20;;;;;;;3.33;1.00;;;;;;;;;;5049470;28;20116;-68
2022/09/27 14:25:46;;;;;;;5.88;1.80;;;;;;;;;;5057080;28;20062;-68
2022/09/27 14:28:23;;;;;;;3.03;0.65;;;;;;;;;;5058510;28;20716;-67
2022/09/27 14:31:03;;;;;;;4.88;1.25;;;;;;;;;;5041127;28;20028;-68
2022/09/27 14:33:30;;;;;;;5.35;1.30;;;;;;;;;;5042656;28;20029;-66
2022/09/27 14:38:40;;;;;;;6.13;0.90;;;;;;;;;;5049105;28;20028;-68
2022/09/27 14:41:06;;;;;;;4.82;0.95;;;;;;;;;;5048603;28;20013;-68
2022/09/27 14:43:33;;;;;;;4.32;1.00;;;;;;;;;;5047030;28;20461;-68
2022/09/27 14:46:00;;;;;;;5.07;1.10;;;;;;;;;;5049676;28;20075;-68
2022/09/27 14:48:33;;;;;;;8.27;1.75;;;;;;;;;;5047341;28;20021;-68
2022/09/27 14:51:03;;;;;;;3.80;1.15;;;;;;;;;;5046928;28;20426;-68
2022/09/27 14:53:30;;;;;;;5.85;1.40;;;;;;;;;;5045937;28;20028;-68
2022/09/27 14:55:56;;;;;;;7.72;1.85;;;;;;;;;;5046708;28;20397;-67
2022/09/27 14:58:25;;;;;;;8.63;3.47;;;;;;;;;;5045647;28;20017;-68
2022/09/27 15:00:51;;;;;;;9.65;2.67;;;;;;;;;;5048457;28;20515;-68
2022/09/27 15:03:23;;;;;;;11.48;1.90;;;;;;;;;;5045238;28;20032;-68